createdAt,value
2019-01-04T00:01:47.368Z,1.70
2019-01-04T00:04:21.452Z,1.47
2019-01-04T00:06:50.419Z,1.90
2019-01-04T00:09:19.184Z,1.50
2019-01-04T00:11:48.080Z,1.80
2019-01-04T00:14:16.874Z,1.90
2019-01-04T00:16:45.744Z,1.77
2019-01-04T00:19:14.675Z,1.70
2019-01-04T00:21:43.591Z,1.90
2019-01-04T00:24:12.333Z,1.57
2019-01-04T00:26:41.425Z,1.73
2019-01-04T00:29:10.386Z,1.47
2019-01-04T00:31:39.204Z,1.67
2019-01-04T00:34:08.122Z,1.40
2019-01-04T00:36:37.116Z,1.77
2019-01-04T00:39:06.560Z,1.83
2019-01-04T00:41:35.359Z,1.80
2019-01-04T00:44:04.381Z,1.57
2019-01-04T00:46:33.549Z,1.17
2019-01-04T00:49:02.360Z,1.37
2019-01-04T00:51:31.289Z,1.50
2019-01-04T00:54:00.137Z,1.30
2019-01-04T00:57:02.241Z,1.30
2019-01-04T01:00:26.467Z,1.10
2019-01-04T01:03:48.760Z,1.27
2019-01-04T01:07:04.511Z,0.80
2019-01-04T01:10:21.675Z,1.03
2019-01-04T01:13:18.519Z,0.90
2019-01-04T01:16:36.624Z,1.17
2019-01-04T01:19:27.276Z,1.30
2019-01-04T01:22:50.775Z,1.10
2019-01-04T01:25:47.369Z,1.00
2019-01-04T01:28:42.996Z,0.90
2019-01-04T01:31:36.273Z,1.30
2019-01-04T01:34:29.581Z,1.20
2019-01-04T01:37:30.319Z,1.30
2019-01-04T01:40:42.383Z,1.30
2019-01-04T01:44:04.204Z,1.40
2019-01-04T01:46:46.270Z,1.27
2019-01-04T01:49:51.302Z,1.20
2019-01-04T01:52:45.272Z,1.10
2019-01-04T01:55:14.155Z,1.20
2019-01-04T01:57:43.153Z,1.40
2019-01-04T02:00:12.165Z,1.23
2019-01-04T02:02:40.956Z,1.20
2019-01-04T02:05:09.747Z,1.20
2019-01-04T02:07:38.689Z,1.10
2019-01-04T02:10:08.743Z,1.20
2019-01-04T02:12:37.913Z,1.00
2019-01-04T02:15:07.630Z,1.23
2019-01-04T02:17:36.524Z,1.13
2019-01-04T02:20:05.953Z,1.07
2019-01-04T02:22:34.801Z,1.00
2019-01-04T02:25:03.802Z,1.03
2019-01-04T02:27:32.879Z,1.00
2019-01-04T02:30:01.680Z,1.07
2019-01-04T02:32:30.494Z,0.87
2019-01-04T02:34:59.243Z,0.70
2019-01-04T02:37:28.274Z,0.90
2019-01-04T02:39:57.057Z,0.90
2019-01-04T02:42:25.852Z,0.60
2019-01-04T02:44:54.622Z,0.93
2019-01-04T02:47:24.328Z,0.60
2019-01-04T02:49:53.112Z,0.50
2019-01-04T02:52:21.857Z,0.93
2019-01-04T02:54:50.698Z,0.80
2019-01-04T02:57:19.603Z,0.80
2019-01-04T02:59:48.352Z,0.53
2019-01-04T03:02:17.669Z,0.73
2019-01-04T03:04:46.437Z,0.97
2019-01-04T03:07:15.343Z,0.80
2019-01-04T03:09:44.061Z,0.87
2019-01-04T03:12:12.879Z,0.87
2019-01-04T03:14:41.687Z,0.97
2019-01-04T03:17:10.697Z,1.10
2019-01-04T03:19:39.472Z,1.67
2019-01-04T03:22:08.257Z,1.10
2019-01-04T03:24:37.069Z,0.97
2019-01-04T03:27:05.981Z,1.27
2019-01-04T03:29:34.767Z,1.37
2019-01-04T03:32:03.553Z,1.30
2019-01-04T03:34:32.405Z,1.57
2019-01-04T03:37:01.698Z,0.80
2019-01-04T03:39:30.490Z,1.20
2019-01-04T03:41:59.358Z,1.20
2019-01-04T03:44:28.104Z,1.27
2019-01-04T03:46:57.176Z,1.23
2019-01-04T03:49:26.102Z,0.93
2019-01-04T03:51:54.894Z,1.23
2019-01-04T03:54:23.664Z,1.10
2019-01-04T03:56:52.784Z,1.37
2019-01-04T03:59:21.588Z,1.20
2019-01-04T04:01:50.419Z,1.67
2019-01-04T04:04:19.183Z,0.90
2019-01-04T04:06:50.127Z,1.23
2019-01-04T04:09:18.933Z,1.20
2019-01-04T04:11:47.721Z,1.10
2019-01-04T04:14:16.543Z,1.30
2019-01-04T04:16:45.469Z,1.40
2019-01-04T04:19:14.253Z,1.20
2019-01-04T04:21:43.082Z,1.00
2019-01-04T04:24:12.036Z,0.90
2019-01-04T04:26:41.023Z,0.83
2019-01-04T04:29:09.761Z,0.93
2019-01-04T04:31:38.599Z,1.20
2019-01-04T04:34:07.405Z,1.13
2019-01-04T04:36:36.191Z,1.10
2019-01-04T04:39:06.981Z,1.23
2019-01-04T04:41:35.790Z,0.83
2019-01-04T04:44:04.585Z,1.20
2019-01-04T04:46:33.380Z,0.87
2019-01-04T04:49:02.161Z,1.20
2019-01-04T04:51:30.950Z,1.20
2019-01-04T04:53:59.744Z,1.30
2019-01-04T04:56:28.746Z,1.00
2019-01-04T04:58:57.526Z,1.00
2019-01-04T05:01:26.442Z,1.20
2019-01-04T05:03:55.467Z,0.93
2019-01-04T05:06:24.248Z,0.93
2019-01-04T05:08:53.021Z,1.10
2019-01-04T05:11:21.847Z,1.13
2019-01-04T05:13:50.628Z,1.30
2019-01-04T05:16:19.453Z,1.30
2019-01-04T05:18:48.544Z,1.13
2019-01-04T05:21:17.336Z,0.90
2019-01-04T05:23:46.181Z,1.13
2019-01-04T05:26:14.929Z,1.23
2019-01-04T05:28:43.839Z,1.33
2019-01-04T05:31:12.672Z,1.33
2019-01-04T05:33:41.489Z,1.27
2019-01-04T05:36:10.270Z,2.07
2019-01-04T05:38:39.258Z,1.53
2019-01-04T05:41:08.048Z,1.40
2019-01-04T05:43:36.882Z,1.37
2019-01-04T05:46:05.778Z,1.37
2019-01-04T05:48:34.801Z,1.27
2019-01-04T05:51:03.733Z,1.20
2019-01-04T05:53:32.541Z,1.33
2019-01-04T05:56:01.345Z,1.17
2019-01-04T05:58:30.290Z,1.50
2019-01-04T06:00:59.077Z,1.23
2019-01-04T06:03:28.260Z,0.93
2019-01-04T06:05:57.226Z,1.27
2019-01-04T06:08:26.232Z,0.70
2019-01-04T06:10:55.032Z,1.50
2019-01-04T06:13:23.827Z,1.20
2019-01-04T06:15:52.727Z,1.27
2019-01-04T06:18:21.716Z,1.20
2019-01-04T06:20:50.522Z,1.30
2019-01-04T06:23:19.290Z,1.40
2019-01-04T06:25:48.201Z,1.37
2019-01-04T06:28:17.261Z,1.10
2019-01-04T06:30:46.039Z,1.40
2019-01-04T06:33:14.884Z,1.20
2019-01-04T06:35:43.627Z,1.30
2019-01-04T06:38:12.640Z,1.93
2019-01-04T06:40:41.419Z,1.70
2019-01-04T06:43:10.213Z,1.43
2019-01-04T06:45:38.988Z,1.83
2019-01-04T06:48:07.968Z,1.60
2019-01-04T06:50:37.406Z,1.87
2019-01-04T06:53:06.315Z,1.70
2019-01-04T06:55:55.896Z,1.80
2019-01-04T06:58:24.852Z,2.20
2019-01-04T07:00:53.676Z,3.80
2019-01-04T07:03:22.512Z,1.93
2019-01-04T07:05:51.301Z,2.20
2019-01-04T07:08:20.168Z,3.00
2019-01-04T07:10:48.993Z,1.63
2019-01-04T07:13:17.752Z,1.97
2019-01-04T07:15:46.587Z,2.50
2019-01-04T07:18:15.542Z,2.30
2019-01-04T07:20:44.351Z,2.10
2019-01-04T07:23:13.126Z,1.90
2019-01-04T07:25:42.005Z,2.33
2019-01-04T07:28:10.913Z,1.90
2019-01-04T07:30:39.720Z,1.90
2019-01-04T07:33:08.664Z,1.83
2019-01-04T07:35:37.516Z,2.87
2019-01-04T07:38:06.446Z,2.00
2019-01-04T07:40:35.385Z,2.00
2019-01-04T07:43:04.203Z,2.20
2019-01-04T07:45:33.126Z,2.53
2019-01-04T07:48:02.091Z,2.30
2019-01-04T07:50:31.179Z,2.20
2019-01-04T07:53:00.012Z,2.30
2019-01-04T07:55:29.110Z,1.80
2019-01-04T07:57:58.170Z,2.20
2019-01-04T08:00:27.081Z,1.70
2019-01-04T08:02:58.394Z,1.90
2019-01-04T08:05:28.575Z,1.77
2019-01-04T08:07:57.642Z,1.93
2019-01-04T08:10:26.795Z,1.90
2019-01-04T08:12:55.607Z,1.90
2019-01-04T08:15:26.563Z,1.80
2019-01-04T08:17:57.577Z,2.17
2019-01-04T08:20:26.374Z,2.20
2019-01-04T08:22:55.194Z,1.73
2019-01-04T08:25:23.968Z,1.83
2019-01-04T08:27:52.858Z,2.00
2019-01-04T08:30:22.029Z,1.80
2019-01-04T08:32:50.882Z,2.60
2019-01-04T08:35:19.709Z,1.92
2019-01-04T08:37:48.600Z,1.93
2019-01-04T08:40:17.409Z,1.87
2019-01-04T08:42:46.196Z,2.20
2019-01-04T08:45:15.756Z,2.03
2019-01-04T08:47:46.616Z,2.37
2019-01-04T08:50:17.444Z,1.93
2019-01-04T08:52:46.456Z,2.33
2019-01-04T08:55:26.411Z,2.50
2019-01-04T08:57:57.415Z,2.50
2019-01-04T09:00:26.375Z,2.27
2019-01-04T09:02:55.153Z,2.47
2019-01-04T09:05:23.946Z,2.00
2019-01-04T09:07:52.946Z,2.10
2019-01-04T09:10:21.834Z,2.17
2019-01-04T09:12:50.580Z,2.13
2019-01-04T09:15:19.399Z,2.37
2019-01-04T09:17:48.536Z,1.60
2019-01-04T09:20:17.355Z,2.63
2019-01-04T09:22:46.268Z,2.33
2019-01-04T09:25:15.154Z,2.37
2019-01-04T09:27:44.234Z,2.03
2019-01-04T09:30:14.629Z,2.37
2019-01-04T09:32:43.426Z,2.00
2019-01-04T09:35:12.472Z,2.50
2019-01-04T09:37:41.484Z,2.27
2019-01-04T09:40:11.595Z,2.00
2019-01-04T09:42:45.402Z,2.10
2019-01-04T09:45:15.986Z,2.50
2019-01-04T09:47:45.752Z,2.40
2019-01-04T09:50:14.632Z,2.27
2019-01-04T09:52:43.442Z,2.30
2019-01-04T09:55:12.245Z,2.30
2019-01-04T09:57:41.053Z,2.30
2019-01-04T10:00:11.874Z,2.23
2019-01-04T10:02:40.672Z,2.10
2019-01-04T10:05:10.222Z,2.07
2019-01-04T10:07:39.155Z,2.10
2019-01-04T10:10:11.257Z,2.33
2019-01-04T10:12:40.220Z,2.00
2019-01-04T10:15:16.862Z,1.62
2019-01-04T10:17:45.825Z,2.00
2019-01-04T10:20:14.694Z,2.30
2019-01-04T10:22:43.475Z,2.10
2019-01-04T10:25:12.472Z,2.00
2019-01-04T10:27:41.417Z,2.80
2019-01-04T10:30:22.027Z,1.90
2019-01-04T10:32:50.882Z,2.20
2019-01-04T10:35:19.702Z,2.60
2019-01-04T10:37:48.577Z,2.30
2019-01-04T10:40:17.399Z,2.60
2019-01-04T10:42:46.182Z,2.57
2019-01-04T10:45:14.972Z,2.30
2019-01-04T10:47:43.986Z,2.07
2019-01-04T10:50:12.759Z,2.30
2019-01-04T10:52:41.506Z,2.17
2019-01-04T10:55:10.475Z,2.33
2019-01-04T10:57:39.302Z,2.63
2019-01-04T11:00:09.473Z,2.47
2019-01-04T11:02:38.340Z,1.97
2019-01-04T11:05:07.231Z,2.43
2019-01-04T11:07:36.160Z,2.23
2019-01-04T11:10:05.488Z,2.00
2019-01-04T11:12:34.263Z,2.33
2019-01-04T11:15:03.144Z,2.27
2019-01-04T11:17:32.067Z,2.07
2019-01-04T11:20:01.031Z,2.53
2019-01-04T11:22:52.835Z,2.00
2019-01-04T11:25:54.271Z,1.93
2019-01-04T11:28:50.902Z,2.17
2019-01-04T11:31:38.442Z,2.27
2019-01-04T11:34:40.701Z,2.07
2019-01-04T11:37:29.756Z,2.47
2019-01-04T11:40:21.915Z,2.70
2019-01-04T11:43:13.902Z,2.40
2019-01-04T11:45:53.476Z,2.10
2019-01-04T11:48:43.552Z,2.30
2019-01-04T11:51:47.189Z,2.50
2019-01-04T11:54:22.927Z,2.63
2019-01-04T11:56:52.001Z,2.80
2019-01-04T11:59:20.803Z,2.37
2019-01-04T12:01:49.575Z,2.43
2019-01-04T12:04:18.319Z,2.53
2019-01-04T12:06:47.347Z,2.40
2019-01-04T12:09:16.145Z,2.70
2019-01-04T12:11:44.893Z,2.30
2019-01-04T12:14:13.741Z,2.50
2019-01-04T12:16:42.772Z,2.83
2019-01-04T12:19:11.568Z,2.57
2019-01-04T12:21:40.370Z,2.90
2019-01-04T12:24:09.170Z,3.43
2019-01-04T12:26:38.033Z,3.07
2019-01-04T12:29:06.849Z,3.90
2019-01-04T12:31:35.717Z,4.17
2019-01-04T12:34:04.480Z,4.43
2019-01-04T12:36:33.377Z,4.07
2019-01-04T12:39:02.162Z,4.50
2019-01-04T12:41:30.990Z,4.30
2019-01-04T12:43:59.773Z,4.33
2019-01-04T12:46:28.840Z,4.50
2019-01-04T12:48:57.654Z,4.80
2019-01-04T12:51:26.453Z,5.07
2019-01-04T12:53:55.237Z,4.70
2019-01-04T12:56:24.097Z,5.60
2019-01-04T12:58:52.924Z,5.70
2019-01-04T13:01:21.725Z,5.73
2019-01-04T13:03:51.688Z,6.20
2019-01-04T13:06:20.475Z,6.30
2019-01-04T13:08:49.633Z,6.33
2019-01-04T13:11:18.430Z,6.37
2019-01-04T13:13:47.179Z,5.87
2019-01-04T13:16:16.007Z,5.43
2019-01-04T13:18:44.907Z,5.40
2019-01-04T13:21:13.748Z,6.10
2019-01-04T13:23:42.522Z,6.03
2019-01-04T13:26:11.408Z,5.43
2019-01-04T13:28:40.469Z,5.10
2019-01-04T13:31:09.409Z,5.57
2019-01-04T13:33:38.269Z,4.77
2019-01-04T13:36:08.248Z,4.10
2019-01-04T13:38:37.269Z,3.37
2019-01-04T13:41:06.127Z,3.40
2019-01-04T13:43:34.937Z,2.83
2019-01-04T13:46:03.673Z,2.80
2019-01-04T13:48:33.646Z,2.63
2019-01-04T13:51:02.664Z,2.73
2019-01-04T13:53:31.528Z,2.73
2019-01-04T13:56:00.315Z,2.80
2019-01-04T13:58:29.212Z,3.00
2019-01-04T14:00:58.388Z,2.53
2019-01-04T14:03:27.207Z,2.93
2019-01-04T14:05:56.077Z,2.53
2019-01-04T14:08:24.960Z,2.73
2019-01-04T14:10:54.059Z,2.90
2019-01-04T14:13:23.168Z,2.43
2019-01-04T14:15:51.960Z,3.17
2019-01-04T14:18:20.954Z,4.20
2019-01-04T14:20:49.737Z,3.40
2019-01-04T14:23:18.512Z,3.10
2019-01-04T14:25:47.410Z,2.97
2019-01-04T14:28:16.295Z,2.73
2019-01-04T14:30:45.077Z,3.40
2019-01-04T14:33:13.931Z,3.47
2019-01-04T14:35:42.769Z,3.27
2019-01-04T14:38:11.832Z,3.73
2019-01-04T14:40:40.608Z,2.83
2019-01-04T14:43:09.445Z,4.87
2019-01-04T14:45:38.238Z,4.17
2019-01-04T14:48:07.202Z,4.10
2019-01-04T14:50:36.018Z,3.63
2019-01-04T14:53:05.217Z,3.60
2019-01-04T14:55:34.001Z,2.93
2019-01-04T14:58:02.984Z,3.20
2019-01-04T15:00:32.170Z,3.23
2019-01-04T15:03:01.033Z,3.30
2019-01-04T15:05:30.050Z,4.33
2019-01-04T15:07:59.252Z,3.50
2019-01-04T15:10:28.260Z,3.07
2019-01-04T15:12:57.053Z,3.70
2019-01-04T15:15:26.082Z,3.90
2019-01-04T15:17:54.919Z,4.20
2019-01-04T15:20:23.842Z,3.80
2019-01-04T15:22:52.686Z,4.30
2019-01-04T15:25:21.585Z,4.20
2019-01-04T15:27:50.578Z,4.70
2019-01-04T15:30:19.587Z,4.17
2019-01-04T15:32:48.388Z,4.67
2019-01-04T15:35:17.252Z,4.73
2019-01-04T15:37:46.340Z,4.20
2019-01-04T15:40:15.305Z,4.90
2019-01-04T15:42:44.337Z,5.00
2019-01-04T15:45:13.137Z,5.00
2019-01-04T15:47:41.947Z,5.00
2019-01-04T15:50:10.993Z,4.60
2019-01-04T15:52:39.777Z,5.20
2019-01-04T15:55:08.623Z,5.10
2019-01-04T15:57:37.555Z,5.72
2019-01-04T16:00:08.400Z,4.90
2019-01-04T16:02:37.167Z,4.97
2019-01-04T16:05:07.527Z,5.37
2019-01-04T16:07:36.638Z,6.30
2019-01-04T16:10:06.223Z,7.03
2019-01-04T16:12:35.007Z,6.03
2019-01-04T16:15:04.136Z,6.30
2019-01-04T16:17:33.185Z,6.90
2019-01-04T16:20:01.982Z,6.40
2019-01-04T16:22:30.993Z,6.17
2019-01-04T16:24:59.847Z,6.03
2019-01-04T16:27:28.978Z,6.27
2019-01-04T16:29:57.774Z,6.60
2019-01-04T16:32:26.527Z,6.90
2019-01-04T16:34:55.319Z,5.97
2019-01-04T16:37:24.157Z,6.77
2019-01-04T16:39:52.995Z,5.93
2019-01-04T16:42:22.005Z,5.90
2019-01-04T16:44:50.804Z,5.90
2019-01-04T16:47:19.662Z,6.47
2019-01-04T16:49:49.457Z,6.50
2019-01-04T16:52:18.376Z,6.17
2019-01-04T16:54:47.168Z,5.73
2019-01-04T16:57:16.717Z,5.83
2019-01-04T16:59:45.512Z,5.80
2019-01-04T17:02:14.656Z,5.00
2019-01-04T17:04:43.518Z,5.17
2019-01-04T17:07:12.746Z,5.37
2019-01-04T17:09:41.510Z,5.10
2019-01-04T17:12:10.357Z,4.87
2019-01-04T17:14:39.111Z,4.70
2019-01-04T17:17:08.183Z,4.57
2019-01-04T17:19:40.775Z,4.50
2019-01-04T17:22:07.940Z,4.03
2019-01-04T17:24:36.826Z,3.87
2019-01-04T17:27:05.803Z,3.53
2019-01-04T17:29:34.602Z,3.63
2019-01-04T17:32:03.409Z,3.77
2019-01-04T17:34:32.196Z,4.00
2019-01-04T17:37:01.171Z,3.80
2019-01-04T17:39:30.045Z,3.57
2019-01-04T17:41:59.694Z,4.80
2019-01-04T17:44:28.602Z,4.17
2019-01-04T17:46:57.538Z,3.70
2019-01-04T17:49:26.319Z,4.53
2019-01-04T17:51:55.145Z,4.27
2019-01-04T17:54:23.927Z,3.60
2019-01-04T17:56:53.355Z,3.70
2019-01-04T17:59:22.502Z,3.37
2019-01-04T18:01:51.291Z,3.37
2019-01-04T18:04:20.102Z,2.60
2019-01-04T18:06:49.062Z,2.77
2019-01-04T18:09:17.874Z,2.93
2019-01-04T18:11:46.655Z,3.53
2019-01-04T18:14:15.457Z,2.50
2019-01-04T18:16:44.418Z,3.13
2019-01-04T18:19:13.207Z,2.40
2019-01-04T18:21:42.013Z,2.63
2019-01-04T18:24:10.786Z,2.90
2019-01-04T18:26:39.784Z,3.40
2019-01-04T18:29:08.706Z,3.20
2019-01-04T18:31:37.586Z,2.80
2019-01-04T18:34:06.461Z,2.33
2019-01-04T18:36:35.348Z,2.40
2019-01-04T18:39:05.885Z,2.37
2019-01-04T18:41:34.781Z,2.90
2019-01-04T18:44:03.558Z,2.27
2019-01-04T18:46:32.536Z,2.80
2019-01-04T18:49:01.328Z,2.30
2019-01-04T18:51:30.132Z,2.47
2019-01-04T18:53:58.890Z,2.57
2019-01-04T18:56:27.799Z,2.20
2019-01-04T18:58:56.550Z,2.53
2019-01-04T19:01:25.364Z,2.90
2019-01-04T19:03:54.224Z,2.37
2019-01-04T19:06:23.489Z,2.23
2019-01-04T19:08:52.265Z,2.20
2019-01-04T19:11:22.520Z,2.20
2019-01-04T19:13:51.415Z,2.30
2019-01-04T19:16:20.313Z,2.27
2019-01-04T19:18:49.420Z,2.20
2019-01-04T19:21:18.229Z,1.90
2019-01-04T19:23:47.027Z,2.30
2019-01-04T19:26:15.822Z,2.00
2019-01-04T19:28:44.679Z,1.57
2019-01-04T19:31:13.532Z,2.00
2019-01-04T19:33:42.343Z,2.27
2019-01-04T19:36:11.154Z,2.10
2019-01-04T19:38:40.075Z,2.50
2019-01-04T19:41:08.866Z,2.20
2019-01-04T19:43:37.652Z,2.20
2019-01-04T19:46:06.441Z,2.77
2019-01-04T19:48:35.356Z,2.27
2019-01-04T19:51:04.175Z,2.47
2019-01-04T19:53:32.965Z,3.10
2019-01-04T19:56:01.820Z,2.43
2019-01-04T19:58:30.853Z,2.43
2019-01-04T20:00:59.660Z,2.80
2019-01-04T20:03:28.462Z,2.73
2019-01-04T20:06:51.197Z,2.13
2019-01-04T20:10:03.596Z,2.63
2019-01-04T20:13:27.372Z,2.43
2019-01-04T20:16:25.889Z,2.27
2019-01-04T20:19:14.134Z,2.20
2019-01-04T20:22:14.241Z,2.80
2019-01-04T20:25:07.269Z,2.57
2019-01-04T20:27:56.502Z,2.80
2019-01-04T20:30:42.929Z,3.00
2019-01-04T20:33:36.999Z,3.07
2019-01-04T20:36:30.914Z,2.80
2019-01-04T20:39:18.183Z,2.70
2019-01-04T20:42:18.227Z,2.27
2019-01-04T20:45:08.164Z,2.60
2019-01-04T20:48:01.749Z,2.40
2019-01-04T20:50:48.487Z,2.67
2019-01-04T20:53:35.337Z,2.53
2019-01-04T20:56:29.332Z,2.50
2019-01-04T20:59:11.587Z,2.27
2019-01-04T21:01:58.121Z,2.40
2019-01-04T21:04:52.552Z,2.80
2019-01-04T21:07:31.175Z,2.47
2019-01-04T21:10:34.479Z,2.73
2019-01-04T21:13:21.004Z,2.47
2019-01-04T21:16:08.868Z,2.15
2019-01-04T21:18:59.615Z,2.20
2019-01-04T21:22:02.463Z,2.13
2019-01-04T21:24:48.166Z,2.20
2019-01-04T21:27:34.863Z,2.00
2019-01-04T21:30:26.969Z,2.20
2019-01-04T21:33:13.939Z,2.00
2019-01-04T21:36:00.380Z,1.97
2019-01-04T21:38:47.155Z,2.27
2019-01-04T21:41:46.865Z,2.10
2019-01-04T21:44:37.442Z,1.90
2019-01-04T21:47:31.680Z,2.00
2019-01-04T21:50:19.180Z,1.87
2019-01-04T21:53:06.033Z,2.00
2019-01-04T21:55:57.581Z,1.80
2019-01-04T21:58:44.463Z,2.00
2019-01-04T22:01:35.480Z,1.77
2019-01-04T22:04:15.553Z,2.00
2019-01-04T22:07:15.859Z,1.80
2019-01-04T22:09:54.130Z,1.47
2019-01-04T22:12:41.026Z,1.97
2019-01-04T22:15:24.173Z,1.70
2019-01-04T22:18:10.997Z,1.73
2019-01-04T22:21:14.006Z,1.77
2019-01-04T22:24:07.590Z,1.90
2019-01-04T22:26:54.203Z,1.50
2019-01-04T22:29:37.949Z,1.67
2019-01-04T22:32:24.255Z,1.60
2019-01-04T22:35:04.093Z,1.80
2019-01-04T22:37:51.043Z,2.10
2019-01-04T22:40:37.589Z,1.80
2019-01-04T22:43:24.509Z,2.00
2019-01-04T22:46:04.690Z,2.40
2019-01-04T22:48:51.448Z,2.10
2019-01-04T22:51:42.238Z,2.27
2019-01-04T22:54:25.900Z,2.20
2019-01-04T22:57:12.506Z,1.80
2019-01-04T23:00:12.687Z,2.20
2019-01-04T23:03:11.432Z,2.10
2019-01-04T23:05:59.871Z,2.00
2019-01-04T23:08:46.907Z,1.67
2019-01-04T23:11:33.580Z,1.93
2019-01-04T23:14:25.037Z,1.80
2019-01-04T23:17:11.771Z,1.97
2019-01-04T23:20:18.289Z,1.87
2019-01-04T23:23:09.329Z,1.80
2019-01-04T23:25:56.046Z,1.77
2019-01-04T23:28:59.362Z,2.20
2019-01-04T23:31:45.613Z,1.97
2019-01-04T23:34:32.558Z,1.97
2019-01-04T23:37:20.605Z,2.00
2019-01-04T23:40:19.681Z,1.77
2019-01-04T23:43:06.209Z,2.40
2019-01-04T23:45:52.934Z,1.87
2019-01-04T23:48:40.939Z,1.80
2019-01-04T23:51:27.823Z,1.87
2019-01-04T23:54:14.832Z,2.10
2019-01-04T23:56:57.981Z,2.03
2019-01-04T23:59:54.979Z,2.23
